This is the latest recevied weather packets stored in our database for station/object KJ4EBE. If no packets are shown the sender has not sent any weather packets the latest 10 day(s).
| Time | Temp. | Humidity | Pressure | Rain* | Wind** | Luminosity | Snow |
|---|---|---|---|---|---|---|---|
| 1777854634 | 22.78° C | 47% | 1016.3 hPa | 0 mm | - | 53 W/m² | - |
| 1777854331 | 22.78° C | 47% | 1016 hPa | 0 mm | - | 53 W/m² | - |
| 1777854029 | 24.44° C | 40% | 1016 hPa | 0 mm | - | 111 W/m² | - |
| 1777853726 | 24.44° C | 40% | 1016.1 hPa | 0 mm | - | 111 W/m² | - |
| 1777853422 | 24.44° C | 40% | 1016 hPa | 0 mm | - | 111 W/m² | - |
| 1777853119 | 24.44° C | 40% | 1016 hPa | 0 mm | - | 111 W/m² | - |
| 1777852817 | 24.44° C | 40% | 1016.2 hPa | 0 mm | - | 111 W/m² | - |
| 1777852515 | 24.44° C | 40% | 1016.3 hPa | 0 mm | - | 111 W/m² | - |
| 1777852211 | 24.44° C | 40% | 1016.2 hPa | 0 mm | - | 111 W/m² | - |
| 1777851909 | 24.44° C | 40% | 1016.4 hPa | 0 mm | - | 111 W/m² | - |
| 1777851607 | 24.44° C | 40% | 1016.5 hPa | 0 mm | - | 111 W/m² | - |
| 1777851303 | 24.44° C | 40% | 1016.4 hPa | 0 mm | - | 111 W/m² | - |
| 1777850999 | 24.44° C | 39% | 1016.5 hPa | 0 mm | - | 113 W/m² | - |
| 1777850696 | 24.44° C | 40% | 1016.6 hPa | 0 mm | - | 91 W/m² | - |
| 1777850394 | 24.44° C | 40% | 1016.6 hPa | 0 mm | - | 91 W/m² | - |
| 1777850091 | 25° C | 41% | 1016.7 hPa | 0 mm | - | 76 W/m² | - |
| 1777849788 | 25.56° C | 37% | 1016.6 hPa | 0 mm | - | 146 W/m² | - |
| 1777849484 | 25.56° C | 38% | 1016.5 hPa | 0 mm | - | 198 W/m² | - |
| 1777849182 | 25.56° C | 37% | 1016.6 hPa | 0 mm | - | 219 W/m² | - |
| 1777848879 | 25.56° C | 38% | 1016.9 hPa | 0 mm | - | 191 W/m² | - |
| 1777848574 | 25.56° C | 40% | 1016.6 hPa | 0 mm | - | 122 W/m² | - |
| 1777848271 | 26.67° C | 37% | 1016.9 hPa | 0 mm | - | 167 W/m² | - |
| 1777847969 | 26.11° C | 38% | 1016.8 hPa | 0 mm | - | 305 W/m² | - |
| 1777847667 | 25.56° C | 38% | 1016.8 hPa | 0 mm | - | 358 W/m² | - |
| 1777847362 | 25.56° C | 36% | 1017.1 hPa | 0 mm | - | 119 W/m² | - |
* Rain latest hour (hover to see other rain measurements)
** Current wind speed in m/s (hover to see current wind gust speed)